9C0 weather

Peninsula Point Pullout Seaplane Base
Ketchikan, Alaska, United States

Public forecast

Using degrees Fahrenheit for public forecast. Weather courtesy of forecast.io.

METAR (pilot weather report)

Closest report is Ketchikan International Airport, 1.9 nm (3.6 km) SSE. Retrieved 2019/07/17 18:53 UTC (47 minutes ago):

PAKT 171853Z 13008KT 10SM -RA SCT012 OVC021 14/13 A2944

TAF (pilot weather forecast)

Closest forecast is Ketchikan International Airport, 1.9 nm (3.6 km) SSE. Retrieved 2019/07/17 18:27 UTC (1 hour ago):

TAF PAKT 171725Z 1718/1818 14010KT 4SM -RA BR FEW008 SCT010 OVC025 TEMPO 1718/1720 BKN010 FM180000 VRB04KT P6SM -RA BKN025 OVC050 FM180600 14005KT 4SM -RA BR BKN008 OVC015 AMD LTD TO CLD VIS AND WIND 1806/1815